sensor_id;sensor_type;location;lat;lon;timestamp;pressure;altitude;pressure_sealevel;temperature;humidity
3968;BME280;9221;42.646;23.380;2023-01-27T00:00:36;93659.59;;;0.88;97.61
3968;BME280;9221;42.646;23.380;2023-01-27T00:03:01;93700.25;;;1.23;97.94
3968;BME280;9221;42.646;23.380;2023-01-27T00:05:26;93711.75;;;1.08;98.48
3968;BME280;9221;42.646;23.380;2023-01-27T00:07:52;93729.25;;;1.17;98.49
3968;BME280;9221;42.646;23.380;2023-01-27T00:10:18;93646.00;;;0.73;98.36
3968;BME280;9221;42.646;23.380;2023-01-27T00:12:45;93677.25;;;0.83;98.69
3968;BME280;9221;42.646;23.380;2023-01-27T00:15:31;93722.47;;;0.92;98.99
3968;BME280;9221;42.646;23.380;2023-01-27T00:17:57;93681.53;;;0.95;99.21
3968;BME280;9221;42.646;23.380;2023-01-27T00:20:23;93664.53;;;0.91;99.33
3968;BME280;9221;42.646;23.380;2023-01-27T00:23:18;93653.72;;;0.97;99.08
3968;BME280;9221;42.646;23.380;2023-01-27T00:26:04;93648.50;;;0.97;99.52
3968;BME280;9221;42.646;23.380;2023-01-27T00:28:34;93591.13;;;0.78;99.28
3968;BME280;9221;42.646;23.380;2023-01-27T00:30:59;93700.19;;;1.00;99.04
3968;BME280;9221;42.646;23.380;2023-01-27T00:33:25;93608.66;;;0.52;99.00
3968;BME280;9221;42.646;23.380;2023-01-27T00:38:24;93666.13;;;0.70;99.81
3968;BME280;9221;42.646;23.380;2023-01-27T00:40:49;93609.94;;;0.46;99.59
3968;BME280;9221;42.646;23.380;2023-01-27T00:43:35;93683.63;;;0.90;100.00
3968;BME280;9221;42.646;23.380;2023-01-27T00:46:00;93659.03;;;1.07;100.00
3968;BME280;9221;42.646;23.380;2023-01-27T00:48:26;93706.13;;;1.14;99.76
3968;BME280;9221;42.646;23.380;2023-01-27T00:50:51;93674.72;;;1.17;99.41
3968;BME280;9221;42.646;23.380;2023-01-27T00:53:17;93674.91;;;0.91;99.10
3968;BME280;9221;42.646;23.380;2023-01-27T00:55:42;93681.81;;;1.15;99.16
3968;BME280;9221;42.646;23.380;2023-01-27T00:58:08;93709.41;;;1.05;99.25
3968;BME280;9221;42.646;23.380;2023-01-27T01:00:33;93616.88;;;0.81;99.02
3968;BME280;9221;42.646;23.380;2023-01-27T01:02:58;93668.84;;;1.26;99.18
3968;BME280;9221;42.646;23.380;2023-01-27T01:05:24;93666.22;;;1.04;98.72
3968;BME280;9221;42.646;23.380;2023-01-27T01:07:49;93613.53;;;0.67;98.81
3968;BME280;9221;42.646;23.380;2023-01-27T01:10:15;93614.03;;;0.95;99.00
3968;BME280;9221;42.646;23.380;2023-01-27T01:12:40;93599.41;;;0.94;98.70
3968;BME280;9221;42.646;23.380;2023-01-27T01:15:06;93649.25;;;1.11;98.99
3968;BME280;9221;42.646;23.380;2023-01-27T01:17:31;93663.84;;;1.12;98.77
3968;BME280;9221;42.646;23.380;2023-01-27T01:19:57;93704.09;;;0.59;99.61
3968;BME280;9221;42.646;23.380;2023-01-27T01:22:22;93701.53;;;0.82;100.00
3968;BME280;9221;42.646;23.380;2023-01-27T01:24:47;93640.13;;;0.82;100.00
3968;BME280;9221;42.646;23.380;2023-01-27T01:27:13;93641.66;;;0.96;100.00
3968;BME280;9221;42.646;23.380;2023-01-27T01:29:38;93597.91;;;0.45;99.80
3968;BME280;9221;42.646;23.380;2023-01-27T01:32:04;93661.50;;;1.20;100.00
3968;BME280;9221;42.646;23.380;2023-01-27T01:34:29;93543.69;;;0.42;99.18
3968;BME280;9221;42.646;23.380;2023-01-27T01:36:55;93611.91;;;0.78;99.50
3968;BME280;9221;42.646;23.380;2023-01-27T01:39:20;93679.44;;;1.00;99.69
3968;BME280;9221;42.646;23.380;2023-01-27T01:41:45;93674.88;;;0.69;100.00
3968;BME280;9221;42.646;23.380;2023-01-27T01:44:28;93681.03;;;0.79;100.00
3968;BME280;9221;42.646;23.380;2023-01-27T01:46:54;93672.81;;;0.96;100.00
3968;BME280;9221;42.646;23.380;2023-01-27T01:49:28;93679.91;;;1.17;100.00
3968;BME280;9221;42.646;23.380;2023-01-27T01:51:59;93609.22;;;0.91;100.00
3968;BME280;9221;42.646;23.380;2023-01-27T01:54:29;93656.69;;;1.38;100.00
3968;BME280;9221;42.646;23.380;2023-01-27T01:57:09;93659.41;;;1.48;99.82
3968;BME280;9221;42.646;23.380;2023-01-27T01:59:43;93637.91;;;1.23;99.34
3968;BME280;9221;42.646;23.380;2023-01-27T02:02:13;93637.44;;;1.52;99.17
3968;BME280;9221;42.646;23.380;2023-01-27T02:04:48;93666.00;;;1.63;98.98
3968;BME280;9221;42.646;23.380;2023-01-27T02:07:27;93677.56;;;1.59;98.69
3968;BME280;9221;42.646;23.380;2023-01-27T02:09:55;93696.72;;;1.69;98.58
3968;BME280;9221;42.646;23.380;2023-01-27T02:12:21;93626.06;;;1.76;98.46
3968;BME280;9221;42.646;23.380;2023-01-27T02:14:47;93626.66;;;1.68;98.04
3968;BME280;9221;42.646;23.380;2023-01-27T02:17:12;93580.22;;;1.75;97.59
3968;BME280;9221;42.646;23.380;2023-01-27T02:20:02;93594.28;;;1.83;97.45
3968;BME280;9221;42.646;23.380;2023-01-27T02:27:59;93563.75;;;1.42;97.14
3968;BME280;9221;42.646;23.380;2023-01-27T02:30:24;93604.75;;;1.93;97.63
3968;BME280;9221;42.646;23.380;2023-01-27T02:32:49;93570.34;;;1.57;97.36
3968;BME280;9221;42.646;23.380;2023-01-27T02:35:21;93602.72;;;1.97;97.87
3968;BME280;9221;42.646;23.380;2023-01-27T02:37:49;93587.84;;;1.99;97.30
3968;BME280;9221;42.646;23.380;2023-01-27T02:40:15;93554.69;;;1.80;97.07
3968;BME280;9221;42.646;23.380;2023-01-27T02:42:41;93543.34;;;1.81;97.15
3968;BME280;9221;42.646;23.380;2023-01-27T02:45:07;93563.09;;;1.83;96.72
3968;BME280;9221;42.646;23.380;2023-01-27T02:47:32;93607.91;;;2.08;96.69
3968;BME280;9221;42.646;23.380;2023-01-27T02:49:58;93696.31;;;2.08;96.46
3968;BME280;9221;42.646;23.380;2023-01-27T02:52:23;93609.78;;;2.06;96.33
3968;BME280;9221;42.646;23.380;2023-01-27T02:54:49;93653.38;;;2.14;96.30
3968;BME280;9221;42.646;23.380;2023-01-27T02:57:14;93651.81;;;2.23;95.55
3968;BME280;9221;42.646;23.380;2023-01-27T02:59:40;93553.66;;;1.71;95.53
3968;BME280;9221;42.646;23.380;2023-01-27T03:02:05;93586.09;;;1.88;95.38
3968;BME280;9221;42.646;23.380;2023-01-27T03:04:31;93601.38;;;2.14;95.29
3968;BME280;9221;42.646;23.380;2023-01-27T03:06:57;93588.56;;;2.01;94.95
3968;BME280;9221;42.646;23.380;2023-01-27T03:09:22;93571.91;;;1.92;94.85
3968;BME280;9221;42.646;23.380;2023-01-27T03:11:48;93588.91;;;1.96;95.00
3968;BME280;9221;42.646;23.380;2023-01-27T03:14:32;93551.16;;;1.81;94.74
3968;BME280;9221;42.646;23.380;2023-01-27T03:17:16;93576.84;;;2.07;94.79
3968;BME280;9221;42.646;23.380;2023-01-27T03:19:59;93582.31;;;1.92;94.28
3968;BME280;9221;42.646;23.380;2023-01-27T03:22:25;93609.72;;;1.96;94.39
3968;BME280;9221;42.646;23.380;2023-01-27T03:24:51;93568.03;;;1.86;94.89
3968;BME280;9221;42.646;23.380;2023-01-27T03:27:16;93514.28;;;1.55;94.69
3968;BME280;9221;42.646;23.380;2023-01-27T03:29:42;93559.94;;;2.01;94.69
3968;BME280;9221;42.646;23.380;2023-01-27T03:32:19;93527.31;;;1.76;94.73
3968;BME280;9221;42.646;23.380;2023-01-27T03:34:45;93544.72;;;1.96;95.38
3968;BME280;9221;42.646;23.380;2023-01-27T03:37:10;93528.44;;;1.94;95.67
3968;BME280;9221;42.646;23.380;2023-01-27T03:39:54;93496.81;;;1.78;95.88
3968;BME280;9221;42.646;23.380;2023-01-27T03:42:38;93570.44;;;2.11;95.36
3968;BME280;9221;42.646;23.380;2023-01-27T03:45:22;93515.75;;;2.01;95.11
3968;BME280;9221;42.646;23.380;2023-01-27T03:48:06;93555.78;;;2.10;95.13
3968;BME280;9221;42.646;23.380;2023-01-27T03:50:32;93541.09;;;2.09;95.23
3968;BME280;9221;42.646;23.380;2023-01-27T03:53:08;93492.56;;;1.77;95.20
3968;BME280;9221;42.646;23.380;2023-01-27T03:55:35;93495.38;;;1.85;95.18
3968;BME280;9221;42.646;23.380;2023-01-27T03:58:01;93527.91;;;2.00;95.36
3968;BME280;9221;42.646;23.380;2023-01-27T04:00:43;93533.72;;;1.93;95.23
3968;BME280;9221;42.646;23.380;2023-01-27T04:03:09;93493.19;;;1.69;95.49
3968;BME280;9221;42.646;23.380;2023-01-27T04:05:53;93532.97;;;1.81;95.44
3968;BME280;9221;42.646;23.380;2023-01-27T04:08:37;93572.09;;;2.00;95.16
3968;BME280;9221;42.646;23.380;2023-01-27T04:11:03;93541.22;;;1.75;95.16
3968;BME280;9221;42.646;23.380;2023-01-27T04:13:48;93604.97;;;2.01;95.30
3968;BME280;9221;42.646;23.380;2023-01-27T04:16:14;93620.78;;;2.10;95.19
3968;BME280;9221;42.646;23.380;2023-01-27T04:18:41;93559.63;;;1.50;94.72
3968;BME280;9221;42.646;23.380;2023-01-27T04:21:06;93615.69;;;1.64;95.45
3968;BME280;9221;42.646;23.380;2023-01-27T04:23:31;93591.88;;;1.92;95.36
3968;BME280;9221;42.646;23.380;2023-01-27T04:25:57;93623.28;;;2.00;95.30
3968;BME280;9221;42.646;23.380;2023-01-27T04:28:25;93559.91;;;1.80;94.98
3968;BME280;9221;42.646;23.380;2023-01-27T04:30:50;93510.28;;;1.39;94.60
3968;BME280;9221;42.646;23.380;2023-01-27T04:33:15;93614.66;;;1.99;94.17
3968;BME280;9221;42.646;23.380;2023-01-27T04:35:44;93582.81;;;1.75;94.96
3968;BME280;9221;42.646;23.380;2023-01-27T04:38:10;93563.81;;;1.74;94.42
3968;BME280;9221;42.646;23.380;2023-01-27T04:40:35;93580.22;;;1.86;94.79
3968;BME280;9221;42.646;23.380;2023-01-27T04:43:01;93580.94;;;1.77;94.62
3968;BME280;9221;42.646;23.380;2023-01-27T04:45:26;93611.03;;;1.91;94.58
3968;BME280;9221;42.646;23.380;2023-01-27T04:47:51;93608.81;;;1.86;94.87
3968;BME280;9221;42.646;23.380;2023-01-27T04:50:17;93633.81;;;1.98;94.94
3968;BME280;9221;42.646;23.380;2023-01-27T04:52:43;93668.81;;;1.94;95.02
3968;BME280;9221;42.646;23.380;2023-01-27T04:55:09;93558.22;;;1.46;95.21
3968;BME280;9221;42.646;23.380;2023-01-27T04:57:35;93630.25;;;1.99;95.49
3968;BME280;9221;42.646;23.380;2023-01-27T05:00:01;93627.22;;;1.94;95.86
3968;BME280;9221;42.646;23.380;2023-01-27T05:02:26;93621.50;;;2.00;95.82
3968;BME280;9221;42.646;23.380;2023-01-27T05:04:51;93617.16;;;2.01;95.51
3968;BME280;9221;42.646;23.380;2023-01-27T05:07:17;93638.34;;;1.85;95.70
3968;BME280;9221;42.646;23.380;2023-01-27T05:09:42;93636.84;;;2.03;96.40
3968;BME280;9221;42.646;23.380;2023-01-27T05:12:07;93588.00;;;1.86;96.04
3968;BME280;9221;42.646;23.380;2023-01-27T05:14:33;93644.66;;;2.15;95.43
3968;BME280;9221;42.646;23.380;2023-01-27T05:16:58;93622.66;;;2.19;95.94
3968;BME280;9221;42.646;23.380;2023-01-27T05:19:24;93574.47;;;1.60;95.67
3968;BME280;9221;42.646;23.380;2023-01-27T05:21:49;93537.66;;;1.55;95.73
3968;BME280;9221;42.646;23.380;2023-01-27T05:24:14;93651.66;;;2.03;95.79
3968;BME280;9221;42.646;23.380;2023-01-27T05:26:40;93561.34;;;1.73;95.67
3968;BME280;9221;42.646;23.380;2023-01-27T05:29:05;93651.66;;;2.03;95.67
3968;BME280;9221;42.646;23.380;2023-01-27T05:31:31;93553.06;;;1.67;95.39
3968;BME280;9221;42.646;23.380;2023-01-27T05:33:59;93610.22;;;1.90;95.69
3968;BME280;9221;42.646;23.380;2023-01-27T05:36:25;93622.50;;;1.88;96.11
3968;BME280;9221;42.646;23.380;2023-01-27T05:38:52;93600.88;;;1.88;96.44
3968;BME280;9221;42.646;23.380;2023-01-27T05:41:19;93594.72;;;1.89;96.81
3968;BME280;9221;42.646;23.380;2023-01-27T05:43:46;93574.03;;;1.87;96.41
3968;BME280;9221;42.646;23.380;2023-01-27T05:46:18;93547.06;;;1.67;96.47
3968;BME280;9221;42.646;23.380;2023-01-27T05:48:45;93595.09;;;1.84;96.37
3968;BME280;9221;42.646;23.380;2023-01-27T05:51:12;93575.22;;;1.83;96.57
3968;BME280;9221;42.646;23.380;2023-01-27T05:53:37;93603.06;;;2.03;96.34
3968;BME280;9221;42.646;23.380;2023-01-27T05:56:04;93602.13;;;2.05;96.22
3968;BME280;9221;42.646;23.380;2023-01-27T05:58:30;93592.69;;;1.92;96.42
3968;BME280;9221;42.646;23.380;2023-01-27T06:00:56;93579.00;;;1.90;
3968;BME280;9221;42.646;23.380;2023-01-27T06:03:28;93651.25;;;2.08;95.88
3968;BME280;9221;42.646;23.380;2023-01-27T06:05:55;93561.75;;;1.89;95.84
3968;BME280;9221;42.646;23.380;2023-01-27T06:08:24;93596.19;;;2.14;95.75
3968;BME280;9221;42.646;23.380;2023-01-27T06:10:51;93501.38;;;1.64;95.33
3968;BME280;9221;42.646;23.380;2023-01-27T06:13:17;93566.78;;;2.02;95.25
3968;BME280;9221;42.646;23.380;2023-01-27T06:15:44;93650.81;;;2.35;95.26
3968;BME280;9221;42.646;23.380;2023-01-27T06:18:11;93585.53;;;2.17;95.02
3968;BME280;9221;42.646;23.380;2023-01-27T06:20:37;93616.31;;;2.33;94.84
3968;BME280;9221;42.646;23.380;2023-01-27T06:23:04;93659.94;;;2.29;94.46
3968;BME280;9221;42.646;23.380;2023-01-27T06:25:29;93613.66;;;2.23;94.30
3968;BME280;9221;42.646;23.380;2023-01-27T06:27:55;93570.91;;;2.05;95.04
3968;BME280;9221;42.646;23.380;2023-01-27T06:30:22;93613.84;;;2.31;94.34
3968;BME280;9221;42.646;23.380;2023-01-27T06:32:47;93564.91;;;2.04;94.54
3968;BME280;9221;42.646;23.380;2023-01-27T06:35:12;93612.78;;;2.34;93.95
3968;BME280;9221;42.646;23.380;2023-01-27T06:37:38;93591.22;;;2.11;93.78
3968;BME280;9221;42.646;23.380;2023-01-27T06:40:04;93602.78;;;2.18;93.83
3968;BME280;9221;42.646;23.380;2023-01-27T06:42:30;93612.47;;;2.16;93.84
3968;BME280;9221;42.646;23.380;2023-01-27T06:44:55;93585.16;;;1.89;93.56
3968;BME280;9221;42.646;23.380;2023-01-27T06:47:20;93645.66;;;1.80;94.00
3968;BME280;9221;42.646;23.380;2023-01-27T06:49:46;93628.78;;;2.18;93.69
3968;BME280;9221;42.646;23.380;2023-01-27T06:52:11;93610.31;;;1.89;93.54
3968;BME280;9221;42.646;23.380;2023-01-27T06:54:36;93594.56;;;2.01;93.27
3968;BME280;9221;42.646;23.380;2023-01-27T06:57:02;93580.16;;;1.97;93.30
3968;BME280;9221;42.646;23.380;2023-01-27T06:59:27;93672.75;;;2.32;92.77
3968;BME280;9221;42.646;23.380;2023-01-27T07:01:52;93647.31;;;2.25;93.07
3968;BME280;9221;42.646;23.380;2023-01-27T07:04:18;93622.44;;;2.11;93.09
3968;BME280;9221;42.646;23.380;2023-01-27T07:06:43;93692.28;;;2.15;93.07
3968;BME280;9221;42.646;23.380;2023-01-27T07:09:09;93598.03;;;1.91;92.94
3968;BME280;9221;42.646;23.380;2023-01-27T07:11:35;93661.63;;;2.30;92.89
3968;BME280;9221;42.646;23.380;2023-01-27T07:14:01;93603.25;;;2.12;92.93
3968;BME280;9221;42.646;23.380;2023-01-27T07:16:27;93658.28;;;2.40;92.64
3968;BME280;9221;42.646;23.380;2023-01-27T07:18:52;93601.84;;;2.08;92.52
3968;BME280;9221;42.646;23.380;2023-01-27T07:21:18;93589.56;;;2.10;92.33
3968;BME280;9221;42.646;23.380;2023-01-27T07:23:43;93659.25;;;2.27;92.18
3968;BME280;9221;42.646;23.380;2023-01-27T07:26:08;93543.03;;;1.74;91.97
3968;BME280;9221;42.646;23.380;2023-01-27T07:28:34;93645.28;;;2.40;91.77
3968;BME280;9221;42.646;23.380;2023-01-27T07:31:01;93673.22;;;2.26;91.39
3968;BME280;9221;42.646;23.380;2023-01-27T07:33:26;93595.50;;;2.00;91.74
3968;BME280;9221;42.646;23.380;2023-01-27T07:35:52;93612.38;;;2.17;91.62
3968;BME280;9221;42.646;23.380;2023-01-27T07:38:18;93640.06;;;2.40;91.28
3968;BME280;9221;42.646;23.380;2023-01-27T07:40:43;93613.91;;;2.09;91.58
3968;BME280;9221;42.646;23.380;2023-01-27T07:43:09;93672.31;;;2.48;91.86
3968;BME280;9221;42.646;23.380;2023-01-27T07:45:36;93646.81;;;2.42;91.10
3968;BME280;9221;42.646;23.380;2023-01-27T07:48:03;93623.34;;;2.21;91.41
3968;BME280;9221;42.646;23.380;2023-01-27T07:50:29;93629.13;;;2.46;91.42
3968;BME280;9221;42.646;23.380;2023-01-27T07:52:58;93639.75;;;2.54;90.84
3968;BME280;9221;42.646;23.380;2023-01-27T07:55:24;93722.38;;;2.41;91.40
3968;BME280;9221;42.646;23.380;2023-01-27T07:57:52;93653.06;;;2.72;90.76
3968;BME280;9221;42.646;23.380;2023-01-27T08:00:18;93602.44;;;2.44;90.69
3968;BME280;9221;42.646;23.380;2023-01-27T08:02:52;93639.47;;;2.68;90.61
3968;BME280;9221;42.646;23.380;2023-01-27T08:05:18;93629.31;;;2.65;90.55
3968;BME280;9221;42.646;23.380;2023-01-27T08:07:45;93598.38;;;2.51;90.48
3968;BME280;9221;42.646;23.380;2023-01-27T08:10:10;93650.06;;;2.77;91.03
3968;BME280;9221;42.646;23.380;2023-01-27T08:12:36;93637.88;;;2.56;90.92
3968;BME280;9221;42.646;23.380;2023-01-27T08:15:01;93641.53;;;2.75;90.85
3968;BME280;9221;42.646;23.380;2023-01-27T08:17:26;93632.47;;;2.69;90.33
3968;BME280;9221;42.646;23.380;2023-01-27T08:19:52;93626.63;;;2.77;90.32
3968;BME280;9221;42.646;23.380;2023-01-27T08:22:18;93690.94;;;2.65;90.09
3968;BME280;9221;42.646;23.380;2023-01-27T08:24:49;93597.97;;;2.34;89.94
3968;BME280;9221;42.646;23.380;2023-01-27T08:27:16;93647.13;;;2.49;89.54
3968;BME280;9221;42.646;23.380;2023-01-27T08:29:42;93646.47;;;2.35;89.60
3968;BME280;9221;42.646;23.380;2023-01-27T08:32:07;93619.78;;;2.22;89.63
3968;BME280;9221;42.646;23.380;2023-01-27T08:34:35;93685.94;;;2.41;89.71
3968;BME280;9221;42.646;23.380;2023-01-27T08:37:01;93599.16;;;2.09;90.04
3968;BME280;9221;42.646;23.380;2023-01-27T08:39:28;93662.75;;;2.37;89.75
3968;BME280;9221;42.646;23.380;2023-01-27T08:41:53;93702.75;;;2.36;90.13
3968;BME280;9221;42.646;23.380;2023-01-27T08:44:19;93672.56;;;2.45;90.11
3968;BME280;9221;42.646;23.380;2023-01-27T08:46:44;93653.16;;;2.49;89.99
3968;BME280;9221;42.646;23.380;2023-01-27T08:49:10;93653.22;;;2.59;89.97
3968;BME280;9221;42.646;23.380;2023-01-27T08:51:38;93618.91;;;2.33;89.45
3968;BME280;9221;42.646;23.380;2023-01-27T08:54:03;93615.72;;;2.29;89.43
3968;BME280;9221;42.646;23.380;2023-01-27T08:56:29;93589.81;;;2.07;89.13
3968;BME280;9221;42.646;23.380;2023-01-27T08:58:54;93646.22;;;2.39;89.56
3968;BME280;9221;42.646;23.380;2023-01-27T09:01:21;93696.47;;;2.39;89.09
3968;BME280;9221;42.646;23.380;2023-01-27T09:03:47;93643.56;;;2.50;89.21
3968;BME280;9221;42.646;23.380;2023-01-27T09:06:13;93557.03;;;1.83;88.95
3968;BME280;9221;42.646;23.380;2023-01-27T09:08:39;93714.66;;;2.50;89.14
3968;BME280;9221;42.646;23.380;2023-01-27T09:11:15;93599.59;;;2.14;89.60
3968;BME280;9221;42.646;23.380;2023-01-27T09:13:41;93622.78;;;2.17;89.69
3968;BME280;9221;42.646;23.380;2023-01-27T09:16:08;93636.06;;;2.35;89.86
3968;BME280;9221;42.646;23.380;2023-01-27T09:18:34;93600.19;;;2.18;89.88
3968;BME280;9221;42.646;23.380;2023-01-27T09:21:03;93657.28;;;2.52;89.55
3968;BME280;9221;42.646;23.380;2023-01-27T09:23:29;93685.19;;;2.50;89.06
3968;BME280;9221;42.646;23.380;2023-01-27T09:25:55;93613.34;;;2.37;89.22
3968;BME280;9221;42.646;23.380;2023-01-27T09:28:20;93633.16;;;2.50;88.66
3968;BME280;9221;42.646;23.380;2023-01-27T09:30:45;93679.50;;;2.56;89.13
3968;BME280;9221;42.646;23.380;2023-01-27T09:33:12;93584.31;;;2.21;89.19
3968;BME280;9221;42.646;23.380;2023-01-27T09:35:53;93632.00;;;2.43;89.68
3968;BME280;9221;42.646;23.380;2023-01-27T09:38:21;93623.59;;;2.50;89.55
3968;BME280;9221;42.646;23.380;2023-01-27T10:06:20;93550.44;;;2.11;91.80
3968;BME280;9221;42.646;23.380;2023-01-27T10:09:45;93582.13;;;2.37;91.16
3968;BME280;9221;42.646;23.380;2023-01-27T10:17:58;93629.19;;;2.34;91.25
3968;BME280;9221;42.646;23.380;2023-01-27T10:20:47;93603.13;;;2.46;91.42
3968;BME280;9221;42.646;23.380;2023-01-27T10:28:26;93589.50;;;2.32;91.45
3968;BME280;9221;42.646;23.380;2023-01-27T10:31:12;93592.03;;;2.44;91.34
3968;BME280;9221;42.646;23.380;2023-01-27T10:33:54;93574.84;;;2.20;90.92
3968;BME280;9221;42.646;23.380;2023-01-27T10:36:28;93581.22;;;2.27;91.24
3968;BME280;9221;42.646;23.380;2023-01-27T10:48:01;93638.25;;;2.08;92.01
3968;BME280;9221;42.646;23.380;2023-01-27T10:50:40;93657.16;;;2.21;91.56
3968;BME280;9221;42.646;23.380;2023-01-27T10:55:55;93616.56;;;2.30;91.59
3968;BME280;9221;42.646;23.380;2023-01-27T10:58:35;93581.22;;;2.27;91.40
3968;BME280;9221;42.646;23.380;2023-01-27T11:01:04;93578.81;;;2.35;91.36
3968;BME280;9221;42.646;23.380;2023-01-27T11:03:38;93534.34;;;2.17;90.98
3968;BME280;9221;42.646;23.380;2023-01-27T11:06:14;93535.09;;;2.08;91.43
3968;BME280;9221;42.646;23.380;2023-01-27T11:08:44;93572.72;;;2.25;91.41
3968;BME280;9221;42.646;23.380;2023-01-27T11:11:10;93660.50;;;2.00;91.85
3968;BME280;9221;42.646;23.380;2023-01-27T11:14:02;93561.22;;;2.07;92.21
3968;BME280;9221;42.646;23.380;2023-01-27T11:16:36;93554.56;;;2.14;92.26
3968;BME280;9221;42.646;23.380;2023-01-27T11:21:56;93603.06;;;2.03;92.74
3968;BME280;9221;42.646;23.380;2023-01-27T11:24:39;93502.19;;;1.65;92.74
3968;BME280;9221;42.646;23.380;2023-01-27T11:27:16;93563.63;;;1.98;93.21
3968;BME280;9221;42.646;23.380;2023-01-27T11:29:57;93497.31;;;1.72;93.06
3968;BME280;9221;42.646;23.380;2023-01-27T11:32:46;93509.44;;;1.82;92.99
3968;BME280;9221;42.646;23.380;2023-01-27T11:35:15;93559.19;;;2.10;92.65
3968;BME280;9221;42.646;23.380;2023-01-27T11:37:46;93622.78;;;1.74;92.70
3968;BME280;9221;42.646;23.380;2023-01-27T11:42:55;93471.19;;;1.41;93.47
3968;BME280;9221;42.646;23.380;2023-01-27T11:45:23;93581.63;;;1.90;93.21
3968;BME280;9221;42.646;23.380;2023-01-27T11:47:52;93550.63;;;1.98;93.59
3968;BME280;9221;42.646;23.380;2023-01-27T11:50:20;93511.25;;;1.71;93.24
3968;BME280;9221;42.646;23.380;2023-01-27T11:52:50;93573.13;;;1.77;92.69
3968;BME280;9221;42.646;23.380;2023-01-27T11:55:22;93581.63;;;1.90;92.86
3968;BME280;9221;42.646;23.380;2023-01-27T11:57:56;93552.25;;;1.99;93.28
3968;BME280;9221;42.646;23.380;2023-01-27T12:00:37;93570.13;;;1.60;92.90
3968;BME280;9221;42.646;23.380;2023-01-27T12:03:18;93600.75;;;1.89;93.11
3968;BME280;9221;42.646;23.380;2023-01-27T12:05:53;93542.38;;;1.93;92.47
3968;BME280;9221;42.646;23.380;2023-01-27T12:08:38;93492.38;;;1.57;92.67
3968;BME280;9221;42.646;23.380;2023-01-27T12:11:22;93555.50;;;1.92;92.84
3968;BME280;9221;42.646;23.380;2023-01-27T12:13:50;93542.63;;;1.90;92.95
3968;BME280;9221;42.646;23.380;2023-01-27T12:16:16;93578.50;;;1.96;92.89
3968;BME280;9221;42.646;23.380;2023-01-27T12:18:55;93520.53;;;1.84;93.13
3968;BME280;9221;42.646;23.380;2023-01-27T12:21:34;93587.66;;;2.12;93.12
3968;BME280;9221;42.646;23.380;2023-01-27T12:23:59;93586.97;;;2.10;92.80
3968;BME280;9221;42.646;23.380;2023-01-27T12:26:34;93551.50;;;2.09;93.20
3968;BME280;9221;42.646;23.380;2023-01-27T12:29:06;93553.66;;;2.03;92.68
3968;BME280;9221;42.646;23.380;2023-01-27T12:31:45;93547.44;;;2.16;92.63
3968;BME280;9221;42.646;23.380;2023-01-27T12:36:50;93555.78;;;2.31;92.25
3968;BME280;9221;42.646;23.380;2023-01-27T12:41:59;93487.66;;;1.62;92.29
3968;BME280;9221;42.646;23.380;2023-01-27T12:44:25;93578.09;;;2.12;92.27
3968;BME280;9221;42.646;23.380;2023-01-27T12:47:01;93539.66;;;2.16;92.26
3968;BME280;9221;42.646;23.380;2023-01-27T12:49:36;93497.47;;;1.91;91.98
3968;BME280;9221;42.646;23.380;2023-01-27T12:52:05;93492.78;;;1.85;91.96
3968;BME280;9221;42.646;23.380;2023-01-27T12:54:33;93482.13;;;1.88;92.43
3968;BME280;9221;42.646;23.380;2023-01-27T12:57:04;93450.63;;;1.49;92.80
3968;BME280;9221;42.646;23.380;2023-01-27T12:59:32;93536.22;;;2.15;92.56
3968;BME280;9221;42.646;23.380;2023-01-27T13:04:36;93543.97;;;2.27;92.89
3968;BME280;9221;42.646;23.380;2023-01-27T13:07:10;93494.81;;;2.02;92.63
3968;BME280;9221;42.646;23.380;2023-01-27T13:12:20;93499.81;;;2.15;91.71
3968;BME280;9221;42.646;23.380;2023-01-27T13:14:53;93567.34;;;2.38;91.76
3968;BME280;9221;42.646;23.380;2023-01-27T13:20:12;93588.88;;;2.61;91.76
3968;BME280;9221;42.646;23.380;2023-01-27T13:22:44;93537.63;;;2.62;91.32
3968;BME280;9221;42.646;23.380;2023-01-27T13:25:20;93545.84;;;2.57;90.83
3968;BME280;9221;42.646;23.380;2023-01-27T13:27:48;93584.72;;;2.37;91.03
3968;BME280;9221;42.646;23.380;2023-01-27T13:30:32;93549.00;;;2.40;91.47
3968;BME280;9221;42.646;23.380;2023-01-27T13:33:42;93551.41;;;2.31;91.83
3968;BME280;9221;42.646;23.380;2023-01-27T13:38:39;93560.34;;;2.17;91.99
3968;BME280;9221;42.646;23.380;2023-01-27T13:41:14;93530.22;;;1.82;92.44
3968;BME280;9221;42.646;23.380;2023-01-27T13:43:50;93549.66;;;1.99;92.56
3968;BME280;9221;42.646;23.380;2023-01-27T13:46:30;93556.25;;;2.03;92.21
3968;BME280;9221;42.646;23.380;2023-01-27T13:49:03;93536.22;;;1.94;92.36
3968;BME280;9221;42.646;23.380;2023-01-27T13:51:30;93685.47;;;1.92;92.50
3968;BME280;9221;42.646;23.380;2023-01-27T13:54:01;93563.63;;;1.87;92.93
3968;BME280;9221;42.646;23.380;2023-01-27T13:56:51;93548.72;;;2.00;92.94
3968;BME280;9221;42.646;23.380;2023-01-27T14:10:37;93608.88;;;1.96;92.46
3968;BME280;9221;42.646;23.380;2023-01-27T14:13:15;93688.50;;;1.97;92.63
3968;BME280;9221;42.646;23.380;2023-01-27T14:15:45;93528.03;;;1.78;92.22
3968;BME280;9221;42.646;23.380;2023-01-27T14:18:20;93601.66;;;1.99;92.09
3968;BME280;9221;42.646;23.380;2023-01-27T14:34:45;93585.84;;;2.24;91.03
3968;BME280;9221;42.646;23.380;2023-01-27T14:37:20;93627.59;;;2.22;91.07
3968;BME280;9221;42.646;23.380;2023-01-27T14:45:18;93596.19;;;2.14;90.62
3968;BME280;9221;42.646;23.380;2023-01-27T14:50:34;93591.88;;;2.24;91.02
3968;BME280;9221;42.646;23.380;2023-01-27T14:58:50;93593.72;;;2.12;90.94
3968;BME280;9221;42.646;23.380;2023-01-27T15:01:21;93638.25;;;2.08;90.96
3968;BME280;9221;42.646;23.380;2023-01-27T15:06:50;93597.28;;;2.00;91.38
3968;BME280;9221;42.646;23.380;2023-01-27T15:12:15;93613.03;;;1.98;91.08
3968;BME280;9221;42.646;23.380;2023-01-27T15:25:42;93632.19;;;1.86;91.31
3968;BME280;9221;42.646;23.380;2023-01-27T15:28:13;93588.53;;;1.68;91.72
3968;BME280;9221;42.646;23.380;2023-01-27T15:36:33;93629.59;;;1.86;90.74
3968;BME280;9221;42.646;23.380;2023-01-27T15:44:30;93633.34;;;1.93;91.45
3968;BME280;9221;42.646;23.380;2023-01-27T15:47:09;93585.31;;;1.65;90.89
3968;BME280;9221;42.646;23.380;2023-01-27T15:49:48;93599.63;;;1.59;91.00
3968;BME280;9221;42.646;23.380;2023-01-27T15:52:29;93648.22;;;1.91;90.92
3968;BME280;9221;42.646;23.380;2023-01-27T15:54:57;93590.31;;;1.57;90.52
3968;BME280;9221;42.646;23.380;2023-01-27T15:57:34;93528.16;;;1.10;91.14
3968;BME280;9221;42.646;23.380;2023-01-27T16:00:05;93645.06;;;1.88;90.77